createdAt,value
2024-04-30T00:03:49.291Z,4.40
2024-04-30T00:07:52.023Z,4.70
2024-04-30T00:11:54.709Z,6.20
2024-04-30T00:15:57.628Z,4.10
2024-04-30T00:20:00.639Z,5.10
2024-04-30T00:24:06.415Z,4.80
2024-04-30T00:28:10.288Z,5.50
2024-04-30T00:32:13.123Z,4.90
2024-04-30T00:36:16.060Z,3.80
2024-04-30T00:40:19.089Z,5.50
2024-04-30T00:44:21.849Z,4.10
2024-04-30T00:48:27.183Z,3.80
2024-04-30T00:52:32.141Z,4.50
2024-04-30T00:56:36.011Z,5.50
2024-04-30T01:00:40.798Z,5.00
2024-04-30T01:04:44.291Z,4.50
2024-04-30T01:08:47.079Z,4.70
2024-04-30T01:12:50.849Z,4.50
2024-04-30T01:16:53.491Z,5.40
2024-04-30T01:20:56.244Z,5.60
2024-04-30T01:24:59.111Z,5.90
2024-04-30T01:29:02.692Z,3.90
2024-04-30T01:33:05.639Z,4.90
2024-04-30T01:37:08.333Z,6.60
2024-04-30T01:41:11.122Z,5.80
2024-04-30T01:45:13.865Z,6.20
2024-04-30T01:49:16.619Z,7.20
2024-04-30T01:53:20.564Z,5.80
2024-04-30T01:57:23.487Z,7.90
2024-04-30T02:01:26.264Z,7.00
2024-04-30T02:05:35.195Z,7.90
2024-04-30T02:09:38.366Z,8.80
2024-04-30T02:13:46.599Z,8.40
2024-04-30T02:17:49.597Z,7.70
2024-04-30T02:21:57.766Z,6.90
2024-04-30T02:26:04.256Z,7.20
2024-04-30T02:30:53.093Z,8.10
2024-04-30T02:34:57.232Z,10.50
2024-04-30T02:38:59.970Z,9.50
2024-04-30T02:43:02.946Z,8.40
2024-04-30T02:47:06.795Z,7.60
2024-04-30T02:51:09.494Z,7.80
2024-04-30T02:55:12.263Z,8.10
2024-04-30T02:59:16.237Z,9.60
2024-04-30T03:03:18.975Z,7.90
2024-04-30T03:07:22.261Z,11.90
2024-04-30T03:11:25.116Z,12.40
2024-04-30T03:15:30.337Z,16.80
2024-04-30T03:19:35.518Z,18.10
2024-04-30T03:23:39.760Z,19.10
2024-04-30T03:27:42.698Z,11.30
2024-04-30T03:31:45.722Z,8.80
2024-04-30T03:36:00.640Z,17.30
2024-04-30T03:40:03.889Z,15.20
2024-04-30T03:44:07.313Z,15.10
2024-04-30T03:48:10.652Z,11.60
2024-04-30T03:52:13.523Z,11.20
2024-04-30T03:56:16.230Z,10.80
2024-04-30T04:00:20.193Z,9.80
2024-04-30T04:04:23.139Z,9.30
2024-04-30T04:08:25.905Z,8.60
2024-04-30T04:12:46.919Z,6.90
2024-04-30T04:16:49.567Z,7.40
2024-04-30T04:20:52.318Z,7.10
2024-04-30T04:30:48.696Z,7.00
2024-04-30T04:34:59.981Z,7.50
2024-04-30T04:39:02.715Z,6.20
2024-04-30T04:43:08.381Z,5.20
2024-04-30T04:47:12.995Z,4.40
2024-04-30T04:51:15.655Z,4.70
2024-04-30T04:55:45.918Z,4.50
2024-04-30T04:59:48.684Z,4.50
2024-04-30T05:04:20.982Z,4.60
2024-04-30T05:08:23.706Z,5.70
2024-04-30T05:12:28.664Z,4.30
2024-04-30T05:16:31.715Z,4.80
2024-04-30T05:20:37.144Z,5.90
2024-04-30T05:24:39.838Z,5.50
2024-04-30T05:29:39.090Z,6.00
2024-04-30T05:33:41.839Z,4.60
2024-04-30T05:39:02.819Z,3.70
2024-04-30T05:44:20.788Z,3.80
2024-04-30T05:48:23.402Z,3.50
2024-04-30T05:52:26.289Z,3.00
2024-04-30T05:56:28.929Z,3.20
2024-04-30T06:00:31.569Z,5.40
2024-04-30T06:04:39.648Z,3.80
2024-04-30T06:08:42.367Z,3.80
2024-04-30T06:13:38.248Z,4.10
2024-04-30T06:17:40.942Z,4.00
2024-04-30T06:21:45.269Z,4.90
2024-04-30T06:26:13.354Z,5.80
2024-04-30T06:30:16.123Z,5.60
2024-04-30T06:34:18.862Z,5.70
2024-04-30T06:38:21.576Z,4.10
2024-04-30T06:42:24.548Z,3.40
2024-04-30T06:46:33.906Z,3.10
2024-04-30T06:51:04.755Z,3.70
2024-04-30T06:55:07.435Z,3.60
2024-04-30T06:59:10.239Z,2.80
2024-04-30T07:03:12.920Z,7.10
2024-04-30T07:07:21.141Z,3.00
2024-04-30T07:11:24.608Z,9.60
2024-04-30T07:15:29.458Z,4.40
2024-04-30T07:19:33.431Z,3.40
2024-04-30T07:23:38.456Z,5.20
2024-04-30T07:27:44.395Z,2.80
2024-04-30T07:31:51.927Z,2.60
2024-04-30T07:35:57.643Z,5.50
2024-04-30T07:40:02.029Z,4.00
2024-04-30T07:44:06.278Z,3.70
2024-04-30T07:48:11.057Z,7.00
2024-04-30T07:52:18.565Z,3.80
2024-04-30T07:56:22.445Z,2.20
2024-04-30T08:00:26.994Z,2.10
2024-04-30T08:04:32.233Z,2.00
2024-04-30T08:08:38.149Z,2.40
2024-04-30T08:12:42.082Z,2.00
2024-04-30T08:16:46.322Z,1.80
2024-04-30T08:20:50.524Z,1.20
2024-04-30T08:24:54.477Z,1.60
2024-04-30T08:29:49.115Z,2.10
2024-04-30T08:33:53.814Z,2.70
2024-04-30T08:38:01.165Z,2.70
2024-04-30T08:42:06.570Z,2.40
2024-04-30T08:46:12.308Z,2.40
2024-04-30T08:50:21.309Z,1.70
2024-04-30T08:54:34.548Z,2.20
2024-04-30T08:58:42.481Z,1.80
2024-04-30T09:02:53.461Z,2.40
2024-04-30T09:06:58.962Z,2.40
2024-04-30T09:11:03.392Z,2.50
2024-04-30T09:15:16.544Z,2.20
2024-04-30T09:19:28.172Z,2.70
2024-04-30T09:23:33.473Z,2.40
2024-04-30T09:27:36.952Z,2.70
2024-04-30T09:31:40.927Z,2.00
2024-04-30T09:35:50.353Z,3.20
2024-04-30T09:39:54.687Z,3.40
2024-04-30T09:44:00.530Z,1.80
2024-04-30T09:48:10.000Z,2.60
2024-04-30T09:52:16.909Z,1.30
2024-04-30T09:56:22.543Z,2.00
2024-04-30T10:00:28.772Z,2.10
2024-04-30T10:04:34.398Z,1.60
2024-04-30T10:08:44.441Z,1.40
2024-04-30T10:12:48.222Z,1.80
2024-04-30T10:17:05.772Z,1.90
2024-04-30T10:21:13.504Z,1.40
2024-04-30T10:25:27.052Z,1.20
2024-04-30T10:29:31.518Z,1.80
2024-04-30T10:33:36.145Z,1.70
2024-04-30T10:37:40.418Z,1.80
2024-04-30T10:41:50.484Z,1.60
2024-04-30T10:45:54.284Z,2.90
2024-04-30T10:50:16.187Z,3.10
2024-04-30T10:54:25.208Z,2.00
2024-04-30T10:58:32.675Z,2.30
2024-04-30T11:02:40.193Z,1.80
2024-04-30T11:06:50.518Z,2.70
2024-04-30T11:10:54.664Z,2.40
2024-04-30T11:14:58.744Z,1.80
2024-04-30T11:19:03.039Z,1.50
2024-04-30T11:23:07.339Z,1.10
2024-04-30T11:27:13.038Z,1.50
2024-04-30T11:31:17.045Z,3.20
2024-04-30T11:35:22.274Z,1.00
2024-04-30T11:39:26.217Z,1.40
2024-04-30T11:43:30.693Z,2.60
2024-04-30T11:47:34.955Z,1.60
2024-04-30T11:51:39.016Z,1.20
2024-04-30T11:55:44.147Z,1.90
2024-04-30T11:59:47.809Z,2.20
2024-04-30T12:03:52.526Z,1.50
2024-04-30T12:07:59.026Z,1.90
2024-04-30T12:12:05.595Z,2.00
2024-04-30T12:16:09.513Z,2.60
2024-04-30T12:20:13.648Z,1.90
2024-04-30T12:24:17.787Z,1.90
2024-04-30T12:28:23.799Z,1.60
2024-04-30T12:32:27.985Z,2.30
2024-04-30T12:36:36.252Z,1.90
2024-04-30T12:40:40.931Z,1.40
2024-04-30T12:44:45.349Z,2.10
2024-04-30T12:48:49.448Z,1.60
2024-04-30T12:52:54.538Z,1.80
2024-04-30T12:57:00.912Z,1.30
2024-04-30T13:01:07.964Z,2.00
2024-04-30T13:05:13.221Z,1.60
2024-04-30T13:14:00.523Z,1.80
2024-04-30T13:18:04.508Z,1.90
2024-04-30T13:22:11.419Z,1.70
2024-04-30T13:26:15.255Z,2.00
2024-04-30T13:30:21.945Z,1.30
2024-04-30T13:34:25.715Z,1.90
2024-04-30T13:38:33.140Z,2.40
2024-04-30T13:42:36.342Z,1.90
2024-04-30T13:46:53.841Z,1.40
2024-04-30T13:50:56.861Z,2.00
2024-04-30T13:55:01.018Z,5.30
2024-04-30T13:59:57.936Z,1.60
2024-04-30T14:04:00.751Z,2.40
2024-04-30T14:08:03.844Z,1.40
2024-04-30T14:12:12.153Z,2.10
2024-04-30T14:16:16.061Z,1.10
2024-04-30T14:20:19.587Z,1.80
2024-04-30T14:24:24.680Z,1.20
2024-04-30T14:28:27.617Z,1.40
2024-04-30T14:32:30.798Z,4.40
2024-04-30T14:36:37.472Z,2.00
2024-04-30T14:40:49.616Z,1.40
2024-04-30T14:44:54.593Z,1.60
2024-04-30T14:49:13.966Z,1.20
2024-04-30T14:53:17.916Z,1.80
2024-04-30T14:57:24.196Z,3.30
2024-04-30T15:01:27.428Z,3.60
2024-04-30T15:05:32.093Z,1.80
2024-04-30T15:09:37.046Z,1.40
2024-04-30T15:17:42.527Z,1.40
2024-04-30T15:21:45.291Z,1.00
2024-04-30T15:25:50.392Z,2.10
2024-04-30T15:29:53.138Z,1.00
2024-04-30T15:33:56.137Z,2.20
2024-04-30T15:38:05.092Z,1.20
2024-04-30T15:42:07.834Z,1.30
2024-04-30T15:46:10.630Z,1.90
2024-04-30T15:50:40.409Z,1.90
2024-04-30T15:54:43.344Z,1.80
2024-04-30T15:59:43.406Z,3.30
2024-04-30T16:03:46.255Z,2.40
2024-04-30T16:08:04.630Z,2.20
2024-04-30T16:12:07.544Z,2.10
2024-04-30T16:16:16.523Z,1.60
2024-04-30T16:20:23.584Z,1.80
2024-04-30T16:24:26.419Z,1.40
2024-04-30T16:37:56.766Z,1.20
2024-04-30T16:42:00.112Z,1.80
2024-04-30T16:46:05.734Z,2.00
2024-04-30T16:50:08.706Z,2.70
2024-04-30T16:54:39.317Z,2.90
2024-04-30T16:58:42.201Z,1.90
2024-04-30T17:02:44.938Z,2.60
2024-04-30T17:07:12.176Z,18.60
2024-04-30T17:11:14.971Z,16.20
2024-04-30T17:15:18.222Z,17.30
2024-04-30T17:19:21.082Z,24.10
2024-04-30T17:23:23.986Z,9.30
2024-04-30T17:27:30.149Z,2.50
2024-04-30T17:31:34.104Z,2.10
2024-04-30T17:35:37.558Z,2.10
2024-04-30T17:39:40.311Z,12.50
2024-04-30T17:43:43.022Z,2.60
2024-04-30T17:48:03.176Z,3.50
2024-04-30T17:56:29.252Z,7.10
2024-04-30T18:00:32.424Z,5.80
2024-04-30T18:04:35.494Z,3.80
2024-04-30T18:08:38.880Z,3.90
2024-04-30T18:12:42.144Z,2.80
2024-04-30T18:16:45.112Z,5.80
2024-04-30T18:20:48.152Z,6.10
2024-04-30T18:24:51.218Z,2.80
2024-04-30T18:28:57.491Z,2.00
2024-04-30T18:33:00.614Z,3.30
2024-04-30T18:37:07.001Z,6.40
2024-04-30T18:41:20.943Z,7.20
2024-04-30T18:45:31.127Z,6.30
2024-04-30T18:49:34.329Z,8.90
2024-04-30T18:53:37.899Z,11.00
2024-04-30T18:57:40.969Z,7.70
2024-04-30T19:01:49.178Z,7.00
2024-04-30T19:05:52.238Z,3.40
2024-04-30T19:09:55.279Z,2.00
2024-04-30T19:13:58.371Z,3.60
2024-04-30T19:18:01.746Z,3.10
2024-04-30T19:22:05.214Z,3.10
2024-04-30T19:26:14.845Z,2.70
2024-04-30T19:30:19.165Z,3.90
2024-04-30T19:34:22.696Z,3.60
2024-04-30T19:38:25.850Z,2.90
2024-04-30T19:42:30.217Z,3.20
2024-04-30T19:46:33.748Z,3.60
2024-04-30T19:50:36.797Z,3.40
2024-04-30T19:54:39.901Z,4.10
2024-04-30T19:58:44.652Z,3.70
2024-04-30T20:02:51.485Z,2.70
2024-04-30T20:06:54.694Z,3.00
2024-04-30T20:10:57.982Z,3.50
2024-04-30T20:15:01.081Z,2.70
2024-04-30T20:19:04.486Z,3.40
2024-04-30T20:23:07.715Z,3.40
2024-04-30T20:27:11.796Z,3.50
2024-04-30T20:31:15.545Z,4.40
2024-04-30T20:35:18.605Z,3.90
2024-04-30T20:39:21.734Z,6.40
2024-04-30T20:43:25.140Z,5.60
2024-04-30T20:47:28.459Z,4.00
2024-04-30T20:51:31.583Z,5.00
2024-04-30T20:55:34.788Z,4.80
2024-04-30T20:59:38.110Z,4.50
2024-04-30T21:03:41.367Z,3.20
2024-04-30T21:07:45.068Z,3.90
2024-04-30T21:11:48.829Z,4.20
2024-04-30T21:15:55.092Z,4.20
2024-04-30T21:19:58.630Z,4.50
2024-04-30T21:24:01.851Z,3.60
2024-04-30T21:28:05.329Z,3.30
2024-04-30T21:32:09.485Z,4.20
2024-04-30T21:36:13.183Z,3.80
2024-04-30T21:40:17.156Z,4.00
2024-04-30T21:44:20.180Z,4.40
2024-04-30T21:48:23.424Z,4.30
2024-04-30T21:52:26.636Z,2.90
2024-04-30T21:56:30.067Z,3.90
2024-04-30T22:00:33.126Z,4.10
2024-04-30T22:04:36.459Z,4.30
2024-04-30T22:08:40.568Z,4.20
2024-04-30T22:12:44.186Z,3.40
2024-04-30T22:16:47.279Z,4.00
2024-04-30T22:20:50.886Z,3.60
2024-04-30T22:24:54.705Z,3.50
2024-04-30T22:28:58.077Z,3.60
2024-04-30T22:33:01.786Z,3.40
2024-04-30T22:37:05.168Z,3.60
2024-04-30T22:41:08.306Z,4.90
2024-04-30T22:45:11.484Z,3.50
2024-04-30T22:49:14.613Z,3.50
2024-04-30T22:53:17.815Z,3.40
2024-04-30T22:57:20.926Z,3.60
2024-04-30T23:01:24.114Z,4.30
2024-04-30T23:05:27.260Z,3.60
2024-04-30T23:09:31.498Z,4.00
2024-04-30T23:13:34.729Z,4.60
2024-04-30T23:17:37.840Z,3.70
2024-04-30T23:21:41.579Z,3.30
2024-04-30T23:25:44.840Z,3.40
2024-04-30T23:29:48.732Z,3.60
2024-04-30T23:33:52.221Z,3.00
2024-04-30T23:37:55.479Z,4.10
2024-04-30T23:41:58.547Z,4.40
2024-04-30T23:46:02.595Z,5.70
2024-04-30T23:50:06.126Z,4.60
2024-04-30T23:54:10.416Z,6.10
2024-04-30T23:58:13.454Z,5.60
